createdAt,value
2019-03-15T00:01:35.700Z,99940.29
2019-03-15T00:04:04.277Z,99930.55
2019-03-15T00:06:32.735Z,99936.91
2019-03-15T00:09:01.137Z,99947.09
2019-03-15T00:11:29.565Z,99955.19
2019-03-15T00:13:57.959Z,99950.10
2019-03-15T00:16:26.383Z,99955.20
2019-03-15T00:18:54.767Z,99958.30
2019-03-15T00:21:23.166Z,99956.62
2019-03-15T00:23:51.603Z,99963.89
2019-03-15T00:26:20.008Z,99961.31
2019-03-15T00:28:48.439Z,99970.69
2019-03-15T00:31:16.860Z,99963.07
2019-03-15T00:33:45.272Z,99958.82
2019-03-15T00:36:13.669Z,99951.22
2019-03-15T00:38:42.069Z,99955.02
2019-03-15T00:41:11.030Z,99952.86
2019-03-15T00:43:39.464Z,99968.09
2019-03-15T00:46:07.945Z,99965.16
2019-03-15T00:48:36.344Z,99972.80
2019-03-15T00:51:04.811Z,99974.92
2019-03-15T00:53:33.235Z,99973.61
2019-03-15T00:56:01.628Z,99974.47
2019-03-15T00:58:30.054Z,99972.32
2019-03-15T01:00:58.449Z,99969.80
2019-03-15T01:03:26.891Z,99968.94
2019-03-15T01:05:55.280Z,99960.82
2019-03-15T01:08:23.771Z,99964.61
2019-03-15T01:10:52.191Z,99963.81
2019-03-15T01:13:20.648Z,99966.84
2019-03-15T01:15:49.071Z,99852.66
2019-03-15T01:18:18.439Z,99966.43
2019-03-15T01:20:47.037Z,99960.53
2019-03-15T01:23:15.442Z,99955.82
2019-03-15T01:25:43.859Z,99950.27
2019-03-15T01:28:12.254Z,99946.42
2019-03-15T01:30:40.689Z,99943.87
2019-03-15T01:33:09.117Z,99935.87
2019-03-15T01:35:37.513Z,99933.72
2019-03-15T01:38:05.919Z,99940.06
2019-03-15T01:40:34.340Z,99946.84
2019-03-15T01:43:02.733Z,99937.09
2019-03-15T01:45:31.194Z,99946.41
2019-03-15T01:47:59.609Z,99933.29
2019-03-15T01:50:28.114Z,99931.15
2019-03-15T01:52:56.517Z,99927.80
2019-03-15T01:55:24.936Z,99926.93
2019-03-15T01:57:53.504Z,99929.00
2019-03-15T02:00:22.095Z,99920.57
2019-03-15T02:02:50.577Z,99919.27
2019-03-15T02:05:19.004Z,99911.63
2019-03-15T02:07:47.488Z,99921.38
2019-03-15T02:10:15.878Z,99915.34
2019-03-15T02:12:44.296Z,99920.80
2019-03-15T02:15:12.788Z,99914.00
2019-03-15T02:17:41.188Z,99911.48
2019-03-15T02:20:09.720Z,99908.52
2019-03-15T02:22:38.170Z,99920.83
2019-03-15T02:25:06.811Z,99912.78
2019-03-15T02:27:35.226Z,99917.13
2019-03-15T02:30:05.359Z,99916.20
2019-03-15T02:32:33.772Z,99914.47
2019-03-15T02:35:02.197Z,99916.18
2019-03-15T02:37:30.600Z,99916.59
2019-03-15T02:39:58.994Z,99918.72
2019-03-15T02:42:27.463Z,99911.53
2019-03-15T02:44:55.882Z,99908.53
2019-03-15T02:47:24.298Z,99906.97
2019-03-15T02:49:52.697Z,99896.80
2019-03-15T02:52:21.181Z,99901.02
2019-03-15T02:54:49.603Z,99899.33
2019-03-15T02:57:18.007Z,99892.95
2019-03-15T02:59:47.238Z,99890.90
2019-03-15T03:02:16.002Z,99895.15
2019-03-15T03:04:44.403Z,99896.88
2019-03-15T03:07:12.812Z,99903.63
2019-03-15T03:09:41.208Z,99902.73
2019-03-15T03:12:09.695Z,99906.95
2019-03-15T03:14:38.115Z,99899.25
2019-03-15T03:17:06.506Z,99903.48
2019-03-15T03:19:34.928Z,99904.30
2019-03-15T03:22:03.342Z,99903.03
2019-03-15T03:24:31.760Z,99904.34
2019-03-15T03:27:00.184Z,99905.17
2019-03-15T03:29:28.601Z,99899.31
2019-03-15T03:31:56.984Z,99891.69
2019-03-15T03:34:25.382Z,99888.23
2019-03-15T03:36:57.636Z,99890.75
2019-03-15T03:39:24.023Z,99889.84
2019-03-15T03:41:52.419Z,99881.83
2019-03-15T03:44:20.873Z,99880.56
2019-03-15T03:46:49.272Z,99885.21
2019-03-15T03:49:17.690Z,99885.63
2019-03-15T03:51:46.086Z,99885.59
2019-03-15T03:54:14.566Z,99882.14
2019-03-15T03:56:43.505Z,99874.43
2019-03-15T03:59:12.023Z,99876.08
2019-03-15T04:01:40.549Z,99869.25
2019-03-15T04:04:09.679Z,99856.11
2019-03-15T04:06:38.163Z,99856.55
2019-03-15T04:09:08.102Z,99862.09
2019-03-15T04:11:36.504Z,99858.30
2019-03-15T04:14:05.063Z,99852.75
2019-03-15T04:16:33.477Z,99850.61
2019-03-15T04:19:02.243Z,99857.36
2019-03-15T04:21:30.738Z,99863.35
2019-03-15T04:23:59.201Z,99857.02
2019-03-15T04:26:27.618Z,99848.15
2019-03-15T04:28:57.131Z,99853.63
2019-03-15T04:31:25.707Z,99856.58
2019-03-15T04:33:54.112Z,99856.56
2019-03-15T04:36:22.509Z,99854.03
2019-03-15T04:38:51.214Z,99855.70
2019-03-15T04:41:19.636Z,99864.67
2019-03-15T04:43:48.026Z,99857.48
2019-03-15T04:46:16.459Z,99857.52
2019-03-15T04:48:44.850Z,99854.61
2019-03-15T04:51:13.268Z,99850.72
2019-03-15T04:53:41.676Z,99851.58
2019-03-15T04:56:10.081Z,99846.58
2019-03-15T04:58:38.498Z,99841.09
2019-03-15T05:01:06.966Z,99837.27
2019-03-15T05:03:35.450Z,99842.77
2019-03-15T05:06:04.200Z,99844.02
2019-03-15T05:08:32.728Z,99839.45
2019-03-15T05:11:01.140Z,99840.73
2019-03-15T05:13:29.566Z,99846.69
2019-03-15T05:15:57.969Z,99845.84
2019-03-15T05:18:26.360Z,99844.62
2019-03-15T05:20:54.836Z,99840.84
2019-03-15T05:23:23.283Z,99834.92
2019-03-15T05:25:51.670Z,99834.39
2019-03-15T05:28:20.157Z,99832.66
2019-03-15T05:30:48.572Z,99819.53
2019-03-15T05:33:16.969Z,99814.84
2019-03-15T05:35:45.437Z,99811.86
2019-03-15T05:38:13.857Z,99804.70
2019-03-15T05:40:42.272Z,99801.74
2019-03-15T05:43:10.708Z,99795.03
2019-03-15T05:45:39.115Z,99794.55
2019-03-15T05:48:07.520Z,99793.29
2019-03-15T05:50:35.914Z,99794.97
2019-03-15T05:53:04.382Z,99790.30
2019-03-15T05:55:32.815Z,99789.43
2019-03-15T05:58:01.228Z,99787.35
2019-03-15T06:00:29.611Z,99784.80
2019-03-15T06:02:58.050Z,99783.95
2019-03-15T06:05:26.532Z,99780.63
2019-03-15T06:07:54.950Z,99776.41
2019-03-15T06:10:23.430Z,99782.33
2019-03-15T06:12:51.856Z,99773.00
2019-03-15T06:15:20.327Z,99773.45
2019-03-15T06:17:48.730Z,99778.55
2019-03-15T06:20:17.256Z,99772.23
2019-03-15T06:22:45.727Z,99773.91
2019-03-15T06:25:14.289Z,99764.58
2019-03-15T06:27:42.710Z,99755.66
2019-03-15T06:30:13.600Z,99754.40
2019-03-15T06:32:42.007Z,99756.50
2019-03-15T06:35:10.574Z,99754.80
2019-03-15T06:37:39.039Z,99756.47
2019-03-15T06:40:13.650Z,99750.95
2019-03-15T06:42:41.519Z,99755.60
2019-03-15T06:45:12.409Z,99754.70
2019-03-15T06:47:40.894Z,99762.74
2019-03-15T06:50:09.951Z,99750.04
2019-03-15T06:52:38.345Z,99751.32
2019-03-15T06:55:09.863Z,99631.88
2019-03-15T06:57:38.390Z,99741.61
2019-03-15T07:00:17.110Z,99744.16
2019-03-15T07:02:46.013Z,99734.78
2019-03-15T07:05:14.862Z,99748.33
2019-03-15T07:07:43.274Z,99733.49
2019-03-15T07:10:12.109Z,99730.97
2019-03-15T07:12:40.916Z,99717.84
2019-03-15T07:15:11.018Z,99716.98
2019-03-15T07:17:39.562Z,99711.53
2019-03-15T07:20:11.089Z,99710.69
2019-03-15T07:22:39.514Z,99709.41
2019-03-15T07:25:09.549Z,99705.61
2019-03-15T07:27:38.104Z,99710.70
2019-03-15T07:30:14.534Z,99711.55
2019-03-15T07:32:43.020Z,99701.82
2019-03-15T07:35:11.438Z,99686.15
2019-03-15T07:37:39.815Z,99688.28
2019-03-15T07:40:10.356Z,99686.59
2019-03-15T07:42:38.895Z,99673.03
2019-03-15T07:45:14.104Z,99663.69
2019-03-15T07:47:42.543Z,99651.39
2019-03-15T07:50:14.974Z,99643.77
2019-03-15T07:52:43.524Z,99642.52
2019-03-15T07:55:11.993Z,99645.92
2019-03-15T07:57:40.447Z,99650.20
2019-03-15T08:00:16.004Z,99644.69
2019-03-15T08:02:44.538Z,99649.36
2019-03-15T08:05:13.107Z,99640.46
2019-03-15T08:07:45.259Z,99643.00
2019-03-15T08:10:13.431Z,99641.73
2019-03-15T08:12:41.851Z,99642.17
2019-03-15T08:15:12.202Z,99642.18
2019-03-15T08:17:40.591Z,99651.95
2019-03-15T08:20:11.042Z,99637.10
2019-03-15T08:22:39.459Z,99636.68
2019-03-15T08:25:10.544Z,99626.52
2019-03-15T08:27:38.986Z,99634.13
2019-03-15T08:30:13.227Z,99635.84
2019-03-15T08:32:43.472Z,99634.98
2019-03-15T08:35:13.001Z,99630.32
2019-03-15T08:37:41.535Z,99623.12
2019-03-15T08:40:12.271Z,99629.48
2019-03-15T08:42:40.912Z,99622.27
2019-03-15T08:45:12.325Z,99618.03
2019-03-15T08:47:40.737Z,99629.91
2019-03-15T08:50:15.450Z,99640.92
2019-03-15T08:52:44.073Z,99638.38
2019-03-15T08:55:13.531Z,99638.38
2019-03-15T08:57:42.076Z,99643.92
2019-03-15T09:00:20.212Z,99641.38
2019-03-15T09:02:48.727Z,99641.42
2019-03-15T09:05:17.652Z,99632.95
2019-03-15T09:07:46.199Z,99634.25
2019-03-15T09:10:24.180Z,99634.27
2019-03-15T09:12:46.084Z,99641.92
2019-03-15T09:15:14.763Z,99641.51
2019-03-15T09:17:43.250Z,99630.09
2019-03-15T09:20:15.647Z,99631.81
2019-03-15T09:22:44.155Z,99632.67
2019-03-15T09:25:20.617Z,99631.00
2019-03-15T09:27:49.587Z,99634.45
2019-03-15T09:30:23.540Z,99631.49
2019-03-15T09:32:48.403Z,99626.86
2019-03-15T09:35:16.799Z,99634.16
2019-03-15T09:37:47.217Z,99632.95
2019-03-15T09:40:16.285Z,99623.67
2019-03-15T09:42:44.752Z,99625.84
2019-03-15T09:45:15.342Z,99623.73
2019-03-15T09:47:43.783Z,99620.37
2019-03-15T09:50:23.120Z,99618.70
2019-03-15T09:52:43.726Z,99616.17
2019-03-15T09:55:13.195Z,99612.39
2019-03-15T09:57:41.609Z,99609.42
2019-03-15T10:00:17.143Z,99609.41
2019-03-15T10:02:45.704Z,99610.26
2019-03-15T10:05:14.248Z,99612.81
2019-03-15T10:07:43.688Z,99616.19
2019-03-15T10:10:19.949Z,99620.45
2019-03-15T10:12:48.472Z,99610.63
2019-03-15T10:15:17.883Z,99626.79
2019-03-15T10:17:46.522Z,99618.28
2019-03-15T10:20:15.671Z,99616.59
2019-03-15T10:22:44.212Z,99620.41
2019-03-15T10:25:15.083Z,99616.98
2019-03-15T10:27:43.657Z,99629.75
2019-03-15T10:30:14.443Z,99628.45
2019-03-15T10:32:42.993Z,99628.47
2019-03-15T10:35:11.579Z,99626.31
2019-03-15T10:37:39.991Z,99629.30
2019-03-15T10:40:11.457Z,99638.64
2019-03-15T10:42:39.958Z,99642.03
2019-03-15T10:45:09.925Z,99641.59
2019-03-15T10:47:38.409Z,99645.41
2019-03-15T10:50:12.350Z,99646.69
2019-03-15T10:52:40.769Z,99656.07
2019-03-15T10:55:09.710Z,99662.01
2019-03-15T10:57:38.215Z,99656.89
2019-03-15T11:00:12.510Z,99652.63
2019-03-15T11:02:41.078Z,99665.42
2019-03-15T11:05:10.530Z,99662.41
2019-03-15T11:07:39.070Z,99662.83
2019-03-15T11:10:10.231Z,99664.53
2019-03-15T11:12:38.683Z,99663.66
2019-03-15T11:15:14.981Z,99681.55
2019-03-15T11:17:43.476Z,99670.45
2019-03-15T11:20:12.848Z,99678.09
2019-03-15T11:22:41.323Z,99672.13
2019-03-15T11:25:10.883Z,99682.77
2019-03-15T11:27:39.330Z,99683.19
2019-03-15T11:30:10.237Z,99694.27
2019-03-15T11:32:38.641Z,99692.13
2019-03-15T11:35:08.974Z,99688.27
2019-03-15T11:37:37.384Z,99693.37
2019-03-15T11:40:08.871Z,99697.63
2019-03-15T11:42:37.292Z,99695.48
2019-03-15T11:45:07.751Z,99682.70
2019-03-15T11:47:56.430Z,99697.18
2019-03-15T11:50:12.855Z,99696.75
2019-03-15T11:52:41.285Z,99701.45
2019-03-15T11:55:10.280Z,99709.52
2019-03-15T11:57:38.768Z,99692.01
2019-03-15T12:00:13.139Z,99700.12
2019-03-15T12:02:41.711Z,99690.72
2019-03-15T12:05:11.174Z,99704.38
2019-03-15T12:07:39.574Z,99690.30
2019-03-15T12:10:13.458Z,99692.44
2019-03-15T12:12:41.926Z,99689.43
2019-03-15T12:15:17.418Z,99689.84
2019-03-15T12:17:45.822Z,99690.67
2019-03-15T12:20:14.492Z,99698.74
2019-03-15T12:22:42.954Z,99683.75
2019-03-15T12:25:12.395Z,99678.61
2019-03-15T12:27:40.803Z,99683.69
2019-03-15T12:30:14.778Z,99685.37
2019-03-15T12:32:43.279Z,99679.34
2019-03-15T12:35:12.747Z,99675.85
2019-03-15T12:37:41.187Z,99671.93
2019-03-15T12:40:17.998Z,99680.42
2019-03-15T12:42:46.488Z,99683.41
2019-03-15T12:45:15.551Z,99693.15
2019-03-15T12:47:44.141Z,99681.98
2019-03-15T12:50:13.762Z,99709.33
2019-03-15T12:52:47.651Z,99695.20
2019-03-15T12:55:13.459Z,99695.61
2019-03-15T12:57:41.963Z,99707.17
2019-03-15T13:00:13.062Z,99686.26
2019-03-15T13:02:41.510Z,99692.28
2019-03-15T13:05:10.054Z,99685.80
2019-03-15T13:07:38.458Z,99683.55
2019-03-15T13:10:15.504Z,99675.39
2019-03-15T13:12:43.937Z,99681.34
2019-03-15T13:15:16.261Z,99686.02
2019-03-15T13:17:44.663Z,99684.66
2019-03-15T13:20:16.819Z,99671.02
2019-03-15T13:22:45.231Z,99676.97
2019-03-15T13:25:13.905Z,99680.80
2019-03-15T13:27:42.375Z,99678.65
2019-03-15T13:30:15.708Z,99665.39
2019-03-15T13:32:44.198Z,99676.13
2019-03-15T13:35:13.464Z,99676.61
2019-03-15T13:37:43.107Z,99670.70
2019-03-15T13:40:16.834Z,99664.78
2019-03-15T13:42:45.287Z,99683.19
2019-03-15T13:45:14.761Z,99685.34
2019-03-15T13:47:43.176Z,99681.52
2019-03-15T13:50:16.787Z,99686.64
2019-03-15T13:52:45.202Z,99696.92
2019-03-15T13:55:13.905Z,99681.13
2019-03-15T13:57:42.370Z,99694.80
2019-03-15T14:00:13.851Z,99686.73
2019-03-15T14:02:42.420Z,99692.28
2019-03-15T14:05:10.898Z,99685.50
2019-03-15T14:07:39.431Z,99679.14
2019-03-15T14:10:10.889Z,99681.63
2019-03-15T14:12:39.391Z,99677.36
2019-03-15T14:15:20.716Z,99675.30
2019-03-15T14:17:49.189Z,99670.60
2019-03-15T14:20:17.669Z,99668.04
2019-03-15T14:22:46.135Z,99679.98
2019-03-15T14:25:16.385Z,99683.41
2019-03-15T14:27:44.792Z,99686.39
2019-03-15T14:30:14.581Z,99681.27
2019-03-15T14:32:43.064Z,99679.14
2019-03-15T14:35:11.837Z,99674.02
2019-03-15T14:37:40.365Z,99673.16
2019-03-15T14:40:12.981Z,99677.42
2019-03-15T14:42:41.601Z,99667.17
2019-03-15T14:45:16.474Z,99661.60
2019-03-15T14:47:45.058Z,99670.59
2019-03-15T14:50:14.507Z,99672.69
2019-03-15T14:52:42.912Z,99673.06
2019-03-15T14:55:12.970Z,99677.70
2019-03-15T14:57:52.180Z,99690.52
2019-03-15T15:00:16.869Z,99672.99
2019-03-15T15:02:45.349Z,99686.20
2019-03-15T15:05:13.914Z,99680.23
2019-03-15T15:07:42.449Z,99674.63
2019-03-15T15:10:17.531Z,99672.92
2019-03-15T15:12:46.049Z,99667.88
2019-03-15T15:15:15.737Z,99672.59
2019-03-15T15:17:44.284Z,99678.16
2019-03-15T15:20:13.253Z,99679.92
2019-03-15T15:22:41.780Z,99660.25
2019-03-15T15:25:11.868Z,99670.95
2019-03-15T15:27:40.479Z,99660.73
2019-03-15T15:30:16.007Z,99666.74
2019-03-15T15:32:44.496Z,99656.42
2019-03-15T15:35:14.456Z,99680.69
2019-03-15T15:37:42.892Z,99678.12
2019-03-15T15:40:18.640Z,99663.63
2019-03-15T15:42:47.144Z,99678.16
2019-03-15T15:45:15.694Z,99661.05
2019-03-15T15:47:44.124Z,99652.56
2019-03-15T15:50:14.642Z,99662.02
2019-03-15T15:52:43.320Z,99663.78
2019-03-15T15:55:13.184Z,99659.11
2019-03-15T15:57:41.624Z,99671.52
2019-03-15T16:00:15.624Z,99680.56
2019-03-15T16:02:44.116Z,99669.06
2019-03-15T16:05:12.744Z,99648.65
2019-03-15T16:07:41.167Z,99673.44
2019-03-15T16:10:12.476Z,99670.44
2019-03-15T16:12:41.004Z,99658.09
2019-03-15T16:15:17.137Z,99665.37
2019-03-15T16:17:46.074Z,99654.72
2019-03-15T16:20:14.707Z,99662.00
2019-03-15T16:22:43.244Z,99683.36
2019-03-15T16:25:12.663Z,99664.58
2019-03-15T16:27:41.158Z,99669.30
2019-03-15T16:30:20.070Z,99665.89
2019-03-15T16:32:48.638Z,99653.50
2019-03-15T16:35:17.057Z,99680.80
2019-03-15T16:37:45.517Z,99657.34
2019-03-15T16:40:17.118Z,99656.94
2019-03-15T16:42:45.513Z,99664.19
2019-03-15T16:45:25.665Z,99651.39
2019-03-15T16:47:54.106Z,99656.50
2019-03-15T16:50:22.555Z,99664.16
2019-03-15T16:52:51.005Z,99650.92
2019-03-15T16:55:19.457Z,99660.75
2019-03-15T16:57:47.948Z,99657.76
2019-03-15T17:00:17.083Z,99652.64
2019-03-15T17:02:45.576Z,99660.77
2019-03-15T17:05:14.682Z,99673.98
2019-03-15T17:07:43.399Z,99669.71
2019-03-15T17:10:19.006Z,99694.06
2019-03-15T17:12:47.458Z,99691.47
2019-03-15T17:15:20.420Z,99688.05
2019-03-15T17:17:48.832Z,99678.65
2019-03-15T17:20:17.285Z,99699.98
2019-03-15T17:22:45.737Z,99704.67
2019-03-15T17:25:14.376Z,99709.80
2019-03-15T17:27:42.760Z,99713.22
2019-03-15T17:30:13.304Z,99710.23
2019-03-15T17:32:41.885Z,99726.45
2019-03-15T17:35:13.055Z,99720.48
2019-03-15T17:37:41.623Z,99722.62
2019-03-15T17:40:12.461Z,99740.55
2019-03-15T17:42:40.940Z,99715.80
2019-03-15T17:45:09.913Z,99746.94
2019-03-15T17:47:38.394Z,99737.14
2019-03-15T17:50:12.335Z,99744.83
2019-03-15T17:52:40.815Z,99756.37
2019-03-15T17:55:09.483Z,99761.92
2019-03-15T17:57:38.030Z,99761.92
2019-03-15T18:00:12.388Z,99773.42
2019-03-15T18:02:40.867Z,99768.73
2019-03-15T18:05:09.829Z,99782.80
2019-03-15T18:07:38.342Z,99785.34
2019-03-15T18:10:08.592Z,99788.33
2019-03-15T18:12:37.037Z,99791.31
2019-03-15T18:15:07.914Z,99798.16
2019-03-15T18:17:36.422Z,99804.13
2019-03-15T18:20:07.280Z,99809.25
2019-03-15T18:22:35.759Z,99816.08
2019-03-15T18:25:06.009Z,99807.09
2019-03-15T18:27:34.582Z,99833.13
2019-03-15T18:30:03.064Z,99831.00
2019-03-15T18:32:31.504Z,99838.25
2019-03-15T18:34:59.939Z,99831.01
2019-03-15T18:37:28.432Z,99837.42
2019-03-15T18:39:57.163Z,99835.73
2019-03-15T18:42:25.678Z,99856.69
2019-03-15T18:44:54.118Z,99870.80
2019-03-15T18:47:22.552Z,99882.73
2019-03-15T18:49:51.024Z,99877.56
2019-03-15T18:52:19.487Z,99903.48
2019-03-15T18:54:47.886Z,99922.99
2019-03-15T18:57:16.374Z,99931.48
2019-03-15T18:59:44.782Z,99963.73
2019-03-15T19:02:13.205Z,99924.53
2019-03-15T19:04:41.695Z,99970.41
2019-03-15T19:07:10.109Z,99952.12
2019-03-15T19:09:38.496Z,99952.09
2019-03-15T19:12:06.986Z,99963.10
2019-03-15T19:14:35.446Z,99957.14
2019-03-15T19:17:03.876Z,99954.17
2019-03-15T19:19:32.365Z,99954.57
2019-03-15T19:22:00.775Z,99960.94
2019-03-15T19:24:29.238Z,99967.74
2019-03-15T19:26:57.620Z,99960.51
2019-03-15T19:29:26.110Z,99961.38
2019-03-15T19:31:54.521Z,99964.76
2019-03-15T19:34:22.973Z,99980.08
2019-03-15T19:36:51.419Z,99985.19
2019-03-15T19:39:19.887Z,99991.56
2019-03-15T19:41:48.300Z,99985.20
2019-03-15T19:44:16.703Z,99992.84
2019-03-15T19:46:45.093Z,99999.65
2019-03-15T19:49:13.519Z,99993.68
2019-03-15T19:51:41.920Z,100001.34
2019-03-15T19:54:10.339Z,100009.85
2019-03-15T19:56:38.785Z,100015.78
2019-03-15T19:59:07.179Z,100017.90
2019-03-15T20:01:35.637Z,100023.41
2019-03-15T20:04:04.085Z,100033.19
2019-03-15T20:06:32.478Z,100033.60
2019-03-15T20:09:00.926Z,100038.27
2019-03-15T20:11:29.326Z,100039.12
2019-03-15T20:13:57.829Z,100044.23
2019-03-15T20:16:26.251Z,100052.76
2019-03-15T20:18:54.659Z,100071.88
2019-03-15T20:21:23.054Z,100079.95
2019-03-15T20:23:51.515Z,100085.48
2019-03-15T20:26:20.061Z,100077.41
2019-03-15T20:28:48.558Z,100066.75
2019-03-15T20:31:17.014Z,100068.48
2019-03-15T20:33:45.442Z,100070.17
2019-03-15T20:36:13.847Z,100073.56
2019-03-15T20:38:42.299Z,100071.81
2019-03-15T20:41:10.775Z,100071.02
2019-03-15T20:43:39.217Z,100082.48
2019-03-15T20:46:07.667Z,100079.94
2019-03-15T20:48:36.072Z,100081.17
2019-03-15T20:51:04.652Z,100080.31
2019-03-15T20:53:33.304Z,100076.06
2019-03-15T20:56:01.786Z,100076.06
2019-03-15T20:58:30.218Z,100083.28
2019-03-15T21:00:58.803Z,100088.44
2019-03-15T21:03:27.213Z,100088.02
2019-03-15T21:05:55.711Z,100083.77
2019-03-15T21:08:24.132Z,100090.14
2019-03-15T21:10:52.543Z,100090.52
2019-03-15T21:13:20.981Z,100072.72
2019-03-15T21:15:49.430Z,100071.88
2019-03-15T21:18:17.863Z,100077.86
2019-03-15T21:20:46.317Z,100085.92
2019-03-15T21:23:14.727Z,100091.03
2019-03-15T21:25:43.150Z,100083.78
2019-03-15T21:28:11.563Z,100096.53
2019-03-15T21:30:48.399Z,100084.62
2019-03-15T21:33:10.124Z,100082.08
2019-03-15T21:35:38.533Z,100091.01
2019-03-15T21:38:06.968Z,100091.01
2019-03-15T21:40:35.369Z,100099.94
2019-03-15T21:43:03.774Z,100102.05
2019-03-15T21:45:32.199Z,100109.27
2019-03-15T21:48:00.636Z,100105.45
2019-03-15T21:50:29.015Z,100109.23
2019-03-15T21:52:57.531Z,100116.45
2019-03-15T21:55:25.961Z,100122.37
2019-03-15T21:57:54.394Z,100128.33
2019-03-15T22:00:22.874Z,100127.50
2019-03-15T22:02:51.368Z,100128.77
2019-03-15T22:05:19.829Z,100125.36
2019-03-15T22:07:48.256Z,100127.49
2019-03-15T22:10:17.394Z,100121.95
2019-03-15T22:12:45.806Z,100141.93
2019-03-15T22:15:14.487Z,100151.68
2019-03-15T22:17:43.018Z,100158.47
2019-03-15T22:20:16.261Z,100155.08
2019-03-15T22:22:44.677Z,100161.02
2019-03-15T22:25:13.352Z,100164.44
2019-03-15T22:27:41.829Z,100168.25
2019-03-15T22:30:15.405Z,100171.66
2019-03-15T22:32:43.901Z,100168.66
2019-03-15T22:35:13.907Z,100163.14
2019-03-15T22:37:42.458Z,100158.47
2019-03-15T22:40:12.531Z,100155.08
2019-03-15T22:42:41.810Z,100162.30
2019-03-15T22:45:16.305Z,100162.69
2019-03-15T22:47:44.774Z,100162.25
2019-03-15T22:50:14.463Z,100166.44
2019-03-15T22:52:42.948Z,100166.39
2019-03-15T22:55:11.934Z,100171.47
2019-03-15T22:57:40.648Z,100175.30
2019-03-15T23:00:17.824Z,100168.92
2019-03-15T23:02:46.501Z,100162.98
2019-03-15T23:05:15.049Z,100166.37
2019-03-15T23:07:43.563Z,100179.58
2019-03-15T23:10:12.104Z,100195.28
2019-03-15T23:12:40.617Z,100196.97
2019-03-15T23:15:10.673Z,100200.78
2019-03-15T23:17:39.164Z,100210.11
2019-03-15T23:20:09.939Z,100208.84
2019-03-15T23:22:38.394Z,100219.03
2019-03-15T23:25:08.229Z,100215.62
2019-03-15T23:27:36.653Z,100222.88
2019-03-15T23:30:16.297Z,100226.68
2019-03-15T23:32:44.957Z,100225.38
2019-03-15T23:35:13.473Z,100221.53
2019-03-15T23:37:41.939Z,100216.47
2019-03-15T23:40:12.818Z,100212.67
2019-03-15T23:42:41.254Z,100216.50
2019-03-15T23:45:10.988Z,100216.52
2019-03-15T23:47:39.435Z,100216.94
2019-03-15T23:50:10.899Z,100219.47
2019-03-15T23:52:39.293Z,100219.45
2019-03-15T23:55:08.645Z,100207.55
2019-03-15T23:57:37.267Z,100211.81
